Time;durP1;ratioP1;P1;durP2;ratioP2;P2;SDS_P1;SDS_P2;PMS_P1;PMS_P2;Temp;Humidity;BMP_temperature;BMP_pressure;BME280_temperature;BME280_humidity;BME280_pressure;Samples;Min_cycle;Max_cycle;Signal;HPM_P1;HPM_P2
2022/04/12 00:02:11;;;;;;;;;;;;;;;8.04;68.40;101185.59;5049123;28;19921;-76
2022/04/12 00:04:36;;;;;;;;;;;;;;;8.02;68.50;101183.00;5051400;28;19925;-76
2022/04/12 00:07:02;;;;;;;;;;;;;;;8.04;68.44;101185.59;5049334;28;20007;-75
2022/04/12 00:09:27;;;;;;;;;;;;;;;7.99;68.46;101187.47;5082330;28;19944;-75
2022/04/12 00:11:52;;;;;;;;;;;;;;;7.95;69.33;101183.25;5047610;28;19920;-76
2022/04/12 00:14:18;;;;;;;;;;;;;;;7.97;69.24;101184.06;5047956;28;19956;-76
2022/04/12 00:16:43;;;;;;;;;;;;;;;7.97;69.56;101184.06;5048702;28;19917;-76
2022/04/12 00:19:10;;;;;;;;;;;;;;;7.85;69.44;101180.06;5046663;28;19920;-77
2022/04/12 00:21:35;;;;;;;;;;;;;;;7.83;69.92;101180.09;5049314;28;20446;-77
2022/04/12 00:24:02;;;;;;;;;;;;;;;7.76;69.65;101186.41;5062313;28;19928;-74
2022/04/12 00:26:28;;;;;;;;;;;;;;;7.78;70.05;101181.13;5051144;28;19927;-77
2022/04/12 00:28:53;;;;;;;;;;;;;;;7.74;70.45;101189.09;5070876;28;20306;-77
2022/04/12 00:31:18;;;;;;;;;;;;;;;7.71;70.50;101191.78;5064059;28;19917;-75
2022/04/12 00:33:43;;;;;;;;;;;;;;;7.70;70.84;101182.22;5047096;28;19920;-76
2022/04/12 00:36:09;;;;;;;;;;;;;;;7.69;70.83;101184.88;5060950;28;19925;-76
2022/04/12 00:38:35;;;;;;;;;;;;;;;7.64;71.41;101179.78;5050313;28;19923;-77
2022/04/12 00:41:01;;;;;;;;;;;;;;;7.71;70.59;101183.94;5045815;28;20032;-75
2022/04/12 00:43:28;;;;;;;;;;;;;;;7.69;71.00;101180.50;5049745;28;20492;-76
2022/04/12 00:45:53;;;;;;;;;;;;;;;7.66;70.64;101190.19;5046956;28;20381;-76
2022/04/12 00:48:19;;;;;;;;;;;;;;;7.63;71.64;101191.16;5047000;28;19924;-75
2022/04/12 00:50:45;;;;;;;;;;;;;;;7.61;71.39;101181.66;5047171;28;19921;-76
2022/04/12 00:53:11;;;;;;;;;;;;;;;7.56;71.15;101181.75;5046091;28;19917;-76
2022/04/12 00:55:38;;;;;;;;;;;;;;;7.58;71.62;101179.97;5044564;28;19960;-75
2022/04/12 00:58:06;;;;;;;;;;;;;;;7.56;71.10;101180.00;5045994;28;19917;-74
2022/04/12 01:00:32;;;;;;;;;;;;;;;7.51;71.36;101174.03;5048167;28;19963;-77
2022/04/12 01:02:57;;;;;;;;;;;;;;;7.55;70.84;101177.44;5045010;28;19944;-76
2022/04/12 01:05:23;;;;;;;;;;;;;;;7.56;70.98;101181.75;5046598;28;19917;-76
2022/04/12 01:07:48;;;;;;;;;;;;;;;7.54;71.18;101187.03;5046934;28;20765;-76
2022/04/12 01:10:13;;;;;;;;;;;;;;;7.56;70.74;101182.63;5060428;28;19921;-76
2022/04/12 01:12:39;;;;;;;;;;;;;;;7.62;70.77;101178.97;5044264;28;19921;-76
2022/04/12 01:15:20;;;;;;;;;;;;;;;7.56;70.61;101185.25;5044870;28;19931;-75
2022/04/12 01:17:46;;;;;;;;;;;;;;;7.57;71.14;101184.34;5048012;28;19939;-75
2022/04/12 01:20:12;;;;;;;;;;;;;;;7.57;71.28;101186.97;5045128;28;19920;-75
2022/04/12 01:22:44;;;;;;;;;;;;;;;7.51;71.19;101179.28;5048722;28;19925;-75
2022/04/12 01:25:09;;;;;;;;;;;;;;;7.54;70.81;101180.97;5045067;28;19966;-75
2022/04/12 01:27:35;;;;;;;;;;;;;;;7.53;71.10;101169.63;5047017;28;20391;-76
2022/04/12 01:30:00;;;;;;;;;;;;;;;7.52;71.08;101174.91;5048491;28;19924;-77
2022/04/12 01:32:25;;;;;;;;;;;;;;;7.48;71.60;101178.50;5034289;28;19920;-78
2022/04/12 01:34:50;;;;;;;;;;;;;;;7.49;71.24;101178.47;5042387;28;20020;-78
2022/04/12 01:37:16;;;;;;;;;;;;;;;7.49;71.09;101173.25;5024047;28;19929;-78
2022/04/12 01:39:41;;;;;;;;;;;;;;;7.42;71.07;101184.75;5046923;28;19928;-77
2022/04/12 01:42:07;;;;;;;;;;;;;;;7.49;71.99;101173.25;5061566;28;19925;-77
2022/04/12 01:44:32;;;;;;;;;;;;;;;7.46;71.44;101169.84;5048590;28;19970;-75
2022/04/12 01:46:57;;;;;;;;;;;;;;;7.40;72.39;101174.38;5042169;28;19933;-75
2022/04/12 01:49:22;;;;;;;;;;;;;;;7.35;73.32;101176.22;5046387;28;19923;-75
2022/04/12 01:51:49;;;;;;;;;;;;;;;7.36;73.13;101177.09;5046768;28;20015;-77
2022/04/12 01:54:14;;;;;;;;;;;;;;;7.28;74.21;101175.53;5045012;28;20007;-76
2022/04/12 01:56:40;;;;;;;;;;;;;;;7.25;74.00;101172.16;5047141;28;20016;-75
2022/04/12 01:59:05;;;;;;;;;;;;;;;7.24;74.40;101173.94;5043619;28;19924;-76
2022/04/12 02:01:30;;;;;;;;;;;;;;;7.20;74.43;101158.38;5045266;28;19921;-75
2022/04/12 02:03:55;;;;;;;;;;;;;;;7.19;75.05;101159.28;5045637;28;19962;-75
2022/04/12 02:06:21;;;;;;;;;;;;;;;7.16;75.24;101154.13;5075463;28;19921;-76
2022/04/12 02:08:46;;;;;;;;;;;;;;;7.16;75.35;101149.78;5044368;28;19987;-76
2022/04/12 02:11:11;;;;;;;;;;;;;;;7.12;75.87;101148.97;5057589;28;19936;-75
2022/04/12 02:13:37;;;;;;;;;;;;;;;7.11;75.99;101147.25;5042794;28;19978;-76
2022/04/12 02:16:02;;;;;;;;;;;;;;;7.09;76.06;101143.88;5043698;28;19928;-76
2022/04/12 02:18:27;;;;;;;;;;;;;;;7.09;76.02;101138.63;5045622;28;19928;-76
2022/04/12 02:20:53;;;;;;;;;;;;;;;7.12;75.25;101143.75;5047330;28;19923;-75
2022/04/12 02:23:18;;;;;;;;;;;;;;;7.01;76.30;101143.19;5064068;28;20382;-77
2022/04/12 02:25:43;;;;;;;;;;;;;;;6.99;76.22;101136.31;5056692;28;19925;-75
2022/04/12 02:28:09;;;;;;;;;;;;;;;6.96;76.11;101134.63;5050681;28;19962;-76
2022/04/12 02:30:34;;;;;;;;;;;;;;;6.94;76.75;101126.84;5055603;28;19917;-76
2022/04/12 02:33:00;;;;;;;;;;;;;;;6.90;76.28;101125.22;5052818;28;19921;-75
2022/04/12 02:35:25;;;;;;;;;;;;;;;6.80;76.71;101131.56;5047114;28;19928;-76
2022/04/12 02:37:51;;;;;;;;;;;;;;;6.89;77.28;101127.88;5053640;28;19952;-76
2022/04/12 02:40:17;;;;;;;;;;;;;;;6.78;77.28;101133.38;5050574;28;20386;-76
2022/04/12 02:42:43;;;;;;;;;;;;;;;6.82;76.69;101127.19;5067181;28;19921;-76
2022/04/12 02:45:08;;;;;;;;;;;;;;;6.87;76.13;101120.06;5051177;28;19952;-75
2022/04/12 02:47:33;;;;;;;;;;;;;;;6.90;75.81;101111.28;5083767;28;19924;-76
2022/04/12 02:49:59;;;;;;;;;;;;;;;6.89;75.83;101112.19;5051644;28;19948;-75
2022/04/12 02:52:24;;;;;;;;;;;;;;;6.90;75.39;101096.47;5051297;28;20382;-75
2022/04/12 02:54:49;;;;;;;;;;;;;;;6.95;74.75;101097.19;5052778;28;19917;-75
2022/04/12 02:57:15;;;;;;;;;;;;;;;6.96;74.99;101091.06;5050475;28;20415;-75
2022/04/12 02:59:40;;;;;;;;;;;;;;;7.01;74.35;101077.03;5051704;28;19924;-74
2022/04/12 03:02:05;;;;;;;;;;;;;;;7.04;74.62;101074.34;5051274;28;19916;-76
2022/04/12 03:04:30;;;;;;;;;;;;;;;6.94;74.36;101082.44;5052040;28;19969;-76
2022/04/12 03:06:56;;;;;;;;;;;;;;;6.99;74.33;101078.84;5051755;28;19928;-75
2022/04/12 03:09:22;;;;;;;;;;;;;;;6.94;74.13;101092.91;5050564;28;19917;-75
2022/04/12 03:11:48;;;;;;;;;;;;;;;6.95;74.64;101086.75;5051546;28;19984;-76
2022/04/12 03:14:13;;;;;;;;;;;;;;;6.94;73.55;101082.44;5049693;28;19925;-75
2022/04/12 03:16:38;;;;;;;;;;;;;;;6.91;74.15;101079.03;5053164;28;19917;-76
2022/04/12 03:19:04;;;;;;;;;;;;;;;6.96;73.66;101082.41;5049984;28;19921;-74
2022/04/12 03:21:29;;;;;;;;;;;;;;;6.94;73.83;101082.44;5050251;28;20015;-76
2022/04/12 03:23:54;;;;;;;;;;;;;;;6.95;73.80;101086.75;5055982;28;19982;-75
2022/04/12 03:26:19;;;;;;;;;;;;;;;6.98;74.20;101078.00;5050492;28;19932;-74
2022/04/12 03:28:45;;;;;;;;;;;;;;;6.88;74.18;101077.38;5055997;28;19916;-78
2022/04/12 03:31:10;;;;;;;;;;;;;;;6.85;74.46;101081.84;5051465;28;19924;-77
2022/04/12 03:33:35;;;;;;;;;;;;;;;6.90;73.87;101072.97;5050915;28;19920;-76
2022/04/12 03:36:00;;;;;;;;;;;;;;;6.89;74.21;101073.03;5051134;28;19998;-75
2022/04/12 03:38:26;;;;;;;;;;;;;;;6.90;74.02;101069.47;5051031;28;19968;-76
2022/04/12 03:40:51;;;;;;;;;;;;;;;6.90;73.86;101059.03;5047161;28;20348;-76
2022/04/12 03:43:17;;;;;;;;;;;;;;;6.89;73.58;101068.66;5050375;28;19932;-75
2022/04/12 03:45:42;;;;;;;;;;;;;;;6.89;73.59;101073.03;5050210;28;19963;-75
2022/04/12 03:48:07;;;;;;;;;;;;;;;6.94;73.82;101082.44;5049080;28;20312;-76
2022/04/12 03:50:36;;;;;;;;;;;;;;;6.93;73.38;101085.09;5049707;28;20005;-76
2022/04/12 03:53:02;;;;;;;;;;;;;;;6.97;72.58;101081.50;5049678;28;19917;-76
2022/04/12 03:55:30;;;;;;;;;;;;;;;6.97;72.62;101069.28;5050113;28;19943;-78
2022/04/12 03:57:57;;;;;;;;;;;;;;;6.99;72.80;101061.41;5051021;28;19935;-76
2022/04/12 04:00:23;;;;;;;;;;;;;;;7.12;72.52;101049.69;5048455;28;19921;-75
2022/04/12 04:02:48;;;;;;;;;;;;;;;7.13;72.26;101037.50;5050038;28;20707;-76
2022/04/12 04:05:13;;;;;;;;;;;;;;;7.17;72.80;101036.50;5048663;28;19916;-76
2022/04/12 04:07:39;;;;;;;;;;;;;;;7.07;72.90;101040.28;5049530;28;19921;-77
2022/04/12 04:10:04;;;;;;;;;;;;;;;7.09;72.57;101052.41;5048840;28;19996;-77
2022/04/12 04:12:30;;;;;;;;;;;;;;;7.09;72.86;101051.53;5065296;28;20761;-78
2022/04/12 04:14:55;;;;;;;;;;;;;;;7.07;73.01;101045.50;5049439;28;19921;-77
2022/04/12 04:17:21;;;;;;;;;;;;;;;7.15;71.99;101050.50;5063170;28;19921;-76
2022/04/12 04:19:46;;;;;;;;;;;;;;;7.15;71.71;101043.53;5047048;28;19928;-74
2022/04/12 04:22:12;;;;;;;;;;;;;;;7.11;72.52;101060.19;5048553;28;19917;-77
2022/04/12 04:24:37;;;;;;;;;;;;;;;7.04;72.83;101063.91;5048875;28;20020;-77
2022/04/12 04:27:05;;;;;;;;;;;;;;;7.03;73.00;101060.41;5047602;28;19951;-76
2022/04/12 04:29:33;;;;;;;;;;;;;;;7.07;72.31;101056.81;5049653;28;19917;-76
2022/04/12 04:31:58;;;;;;;;;;;;;;;7.06;72.70;101068.16;5047605;28;19925;-75
2022/04/12 04:34:24;;;;;;;;;;;;;;;7.12;72.35;101059.31;5044831;28;19920;-76
2022/04/12 04:36:49;;;;;;;;;;;;;;;7.11;71.69;101066.28;5046732;28;20338;-76
2022/04/12 04:39:14;;;;;;;;;;;;;;;7.26;71.04;101074.56;5045661;28;19928;-75
2022/04/12 04:41:40;;;;;;;;;;;;;;;7.25;70.88;101065.88;5047014;28;19970;-75
2022/04/12 04:44:05;;;;;;;;;;;;;;;7.24;71.17;101069.41;5046066;28;19917;-75
2022/04/12 04:46:30;;;;;;;;;;;;;;;7.24;70.63;101069.41;5062282;28;20008;-75
2022/04/12 04:48:55;;;;;;;;;;;;;;;7.33;70.87;101067.41;5049182;28;19955;-75
2022/04/12 04:51:21;;;;;;;;;;;;;;;7.31;71.10;101064.84;5047226;28;20778;-75
2022/04/12 04:53:55;;;;;;;;;;;;;;;7.34;70.81;101058.66;5047855;28;20366;-75
2022/04/12 04:56:21;;;;;;;;;;;;;;;7.36;70.52;101046.41;5059036;28;19936;-76
2022/04/12 04:58:46;;;;;;;;;;;;;;;7.39;70.36;101039.34;5047215;28;20153;-77
2022/04/12 05:01:11;;;;;;;;;;;;;;;7.38;70.72;101032.38;5043467;28;19925;-77
2022/04/12 05:03:37;;;;;;;;;;;;;;;7.40;71.49;101027.09;5048830;28;19935;-75
2022/04/12 05:06:02;;;;;;;;;;;;;;;7.33;71.88;101031.66;5080709;28;20392;-75
2022/04/12 05:08:27;;;;;;;;;;;;;;;7.28;71.96;101044.88;5049783;28;19994;-76
2022/04/12 05:10:52;;;;;;;;;;;;;;;7.26;72.39;101031.03;5051212;28;19956;-80
2022/04/12 05:13:18;;;;;;;;;;;;;;;7.28;72.47;101039.66;5047357;28;19921;-79
2022/04/12 05:15:43;;;;;;;;;;;;;;;7.31;73.06;101037.84;5047661;28;19935;-75
2022/04/12 05:18:08;;;;;;;;;;;;;;;7.33;72.60;101030.81;5046136;28;19917;-77
2022/04/12 05:20:34;;;;;;;;;;;;;;;7.28;71.57;101028.34;5046815;28;20819;-78
2022/04/12 05:22:59;;;;;;;;;;;;;;;7.36;72.36;101034.19;5047356;28;19925;-76
2022/04/12 05:25:24;;;;;;;;;;;;;;;7.34;71.88;101036.00;5045411;28;20737;-77
2022/04/12 05:27:49;;;;;;;;;;;;;;;7.28;72.18;101042.25;5047197;28;19917;-79
2022/04/12 05:30:16;;;;;;;;;;;;;;;7.30;71.91;101046.59;5046258;28;19917;-78
2022/04/12 05:32:41;;;;;;;;;;;;;;;7.39;71.49;101056.75;5048406;28;19956;-77
2022/04/12 05:35:07;;;;;;;;;;;;;;;7.40;70.88;101064.56;5045306;28;20389;-76
2022/04/12 05:37:40;;;;;;;;;;;;;;;7.40;70.89;101061.97;5046559;28;19962;-77
2022/04/12 05:40:05;;;;;;;;;;;;;;;7.45;71.20;101068.78;5074789;28;19949;-77
2022/04/12 05:42:30;;;;;;;;;;;;;;;7.43;70.70;101071.47;5042217;28;19967;-79
2022/04/12 05:44:56;;;;;;;;;;;;;;;7.49;70.58;101075.66;5042075;28;19925;-79
2022/04/12 05:47:21;;;;;;;;;;;;;;;7.53;70.53;101070.28;5039189;28;19925;-78
2022/04/12 05:49:46;;;;;;;;;;;;;;;7.54;70.28;101065.94;5073899;28;19975;-78
2022/04/12 05:52:12;;;;;;;;;;;;;;;7.63;69.82;101073.47;5037503;28;19963;-77
2022/04/12 05:54:37;;;;;;;;;;;;;;;7.71;69.93;101062.78;5047109;28;19970;-77
2022/04/12 05:57:02;;;;;;;;;;;;;;;7.76;70.32;101068.72;5045490;28;20279;-76
2022/04/12 05:59:27;;;;;;;;;;;;;;;7.83;69.61;101070.22;5049753;28;19928;-76
2022/04/12 06:01:53;;;;;;;;;;;;;;;7.82;69.89;101060.69;5050400;28;19917;-77
2022/04/12 06:04:18;;;;;;;;;;;;;;;7.86;69.83;101071.91;5049812;28;19924;-77
2022/04/12 06:06:43;;;;;;;;;;;;;;;7.88;69.45;101070.94;5050204;28;19931;-78
2022/04/12 06:09:09;;;;;;;;;;;;;;;8.02;69.31;101072.28;5050009;28;19967;-76
2022/04/12 06:11:34;;;;;;;;;;;;;;;8.12;68.76;101071.06;5050755;28;20476;-78
2022/04/12 06:13:59;;;;;;;;;;;;;;;8.31;68.39;101062.59;5050208;28;19945;-79
2022/04/12 06:16:25;;;;;;;;;;;;;;;8.31;68.20;101057.34;5048937;28;19921;-77
2022/04/12 06:18:50;;;;;;;;;;;;;;;8.39;67.98;101055.31;5062484;28;19921;-77
2022/04/12 06:21:15;;;;;;;;;;;;;;;8.50;67.53;101060.25;5048838;28;19999;-79
2022/04/12 06:23:41;;;;;;;;;;;;;;;8.57;67.66;101068.75;5050402;28;19995;-78
2022/04/12 06:26:06;;;;;;;;;;;;;;;8.72;67.16;101062.94;5049825;28;19928;-77
2022/04/12 06:28:32;;;;;;;;;;;;;;;8.93;66.28;101052.63;5049621;28;19960;-78
2022/04/12 06:30:59;;;;;;;;;;;;;;;9.01;66.08;101052.31;5050926;28;19970;-79
2022/04/12 06:33:25;;;;;;;;;;;;;;;9.14;65.64;101043.09;5047660;28;19921;-77
2022/04/12 06:35:50;;;;;;;;;;;;;;;9.42;64.83;101037.66;5051430;28;20459;-78
2022/04/12 06:38:15;;;;;;;;;;;;;;;9.67;64.18;101041.06;5047725;28;20007;-77
2022/04/12 06:40:43;;;;;;;;;;;;;;;9.65;63.85;101029.78;5049711;28;19940;-77
2022/04/12 06:43:08;;;;;;;;;;;;;;;9.80;63.58;101030.97;5049531;28;19927;-77
2022/04/12 06:45:34;;;;;;;;;;;;;;;10.03;62.93;101028.22;5047332;28;19921;-78
2022/04/12 06:47:59;;;;;;;;;;;;;;;10.18;61.62;101021.50;5050716;28;19916;-77
2022/04/12 06:50:25;;;;;;;;;;;;;;;9.88;62.43;101015.75;5049259;28;19921;-78
2022/04/12 06:52:51;;;;;;;;;;;;;;;10.17;62.39;101024.16;5052019;28;19921;-78
2022/04/12 06:55:16;;;;;;;;;;;;;;;10.40;61.22;101030.25;5049193;28;20434;-76
2022/04/12 06:57:42;;;;;;;;;;;;;;;10.32;61.34;101027.91;5049001;28;20522;-77
2022/04/12 07:00:08;;;;;;;;;;;;;;;10.23;61.47;101030.94;5048561;28;19924;-78
2022/04/12 07:02:33;;;;;;;;;;;;;;;10.36;61.25;101029.50;5048573;28;20374;-79
2022/04/12 07:04:59;;;;;;;;;;;;;;;10.45;60.80;101026.50;5050375;28;19943;-78
2022/04/12 07:07:24;;;;;;;;;;;;;;;10.69;60.39;101031.59;5038381;28;19925;-79
2022/04/12 07:09:50;;;;;;;;;;;;;;;10.82;59.69;101019.63;5082241;28;19923;-79
2022/04/12 07:12:15;;;;;;;;;;;;;;;11.08;59.47;101024.63;5049047;28;19917;-79
2022/04/12 07:14:40;;;;;;;;;;;;;;;11.25;58.33;101015.94;5048355;28;19975;-77
2022/04/12 07:17:06;;;;;;;;;;;;;;;12.66;54.58;101019.56;5048842;28;20007;-78
2022/04/12 07:19:31;;;;;;;;;;;;;;;13.04;53.32;101015.81;5050060;28;19921;-79
2022/04/12 07:21:56;;;;;;;;;;;;;;;12.67;53.21;101039.72;5050899;28;19921;-79
2022/04/12 07:24:21;;;;;;;;;;;;;;;13.74;51.16;101023.38;5049313;28;20011;-77
2022/04/12 07:26:47;;;;;;;;;;;;;;;13.44;50.92;101037.38;5048678;28;19929;-78
2022/04/12 07:29:12;;;;;;;;;;;;;;;13.47;51.51;101039.00;5050774;28;19927;-80
2022/04/12 07:34:27;;;;;;;;;;;;;;;14.88;47.50;101026.38;5046236;28;19925;-77
2022/04/12 07:36:54;;;;;;;;;;;;;;;14.29;49.35;101032.53;5047591;28;20327;-78
2022/04/12 07:39:21;;;;;;;;;;;;;;;14.54;48.42;101026.63;5047032;28;20329;-76
2022/04/12 07:41:47;;;;;;;;;;;;;;;15.24;46.77;101027.66;5046747;28;19921;-77
2022/04/12 07:44:14;;;;;;;;;;;;;;;15.37;46.27;101018.91;5062207;28;20008;-76
2022/04/12 07:46:39;;;;;;;;;;;;;;;16.11;45.61;101014.09;5047659;28;19921;-76
2022/04/12 07:49:05;;;;;;;;;;;;;;;16.20;44.73;101007.34;5047384;28;20333;-79
2022/04/12 07:51:30;;;;;;;;;;;;;;;15.62;45.63;101007.59;5046109;28;20004;-79
2022/04/12 07:53:55;;;;;;;;;;;;;;;15.09;46.89;101010.09;5047078;28;19939;-78
2022/04/12 07:56:21;;;;;;;;;;;;;;;15.21;47.32;101019.91;5047784;28;20016;-78
2022/04/12 07:58:46;;;;;;;;;;;;;;;15.15;46.52;101001.78;5046539;28;19928;-78
2022/04/12 08:01:12;;;;;;;;;;;;;;;14.87;48.00;101006.16;5047907;28;20011;-79
2022/04/12 08:03:39;;;;;;;;;;;;;;;15.59;46.41;100999.84;5048348;28;19921;-78
2022/04/12 08:06:05;;;;;;;;;;;;;;;15.20;47.16;101010.28;5047478;28;20015;-77
2022/04/12 08:08:32;;;;;;;;;;;;;;;15.84;46.07;101001.75;5047842;28;20020;-79
2022/04/12 08:10:57;;;;;;;;;;;;;;;15.29;47.35;101009.69;5049259;28;19917;-80
2022/04/12 08:13:23;;;;;;;;;;;;;;;14.95;47.69;100995.94;5050641;28;19940;-79
2022/04/12 08:15:48;;;;;;;;;;;;;;;15.57;46.34;100986.69;5048561;28;19921;-77
2022/04/12 08:18:13;;;;;;;;;;;;;;;15.85;45.58;100979.63;5049905;28;19923;-77
2022/04/12 08:20:39;;;;;;;;;;;;;;;17.34;43.10;100985.22;5049865;28;19943;-79
2022/04/12 08:23:04;;;;;;;;;;;;;;;17.76;42.46;100988.31;5049654;28;19921;-79
2022/04/12 08:25:29;;;;;;;;;;;;;;;17.36;43.42;101003.72;5048529;28;20549;-77
2022/04/12 08:27:55;;;;;;;;;;;;;;;19.05;40.36;100996.28;5049604;28;19921;-77
2022/04/12 08:30:21;;;;;;;;;;;;;;;19.04;39.21;100998.06;5053455;28;20027;-78
2022/04/12 08:32:46;;;;;;;;;;;;;;;17.51;42.52;101007.06;5048663;28;19931;-77
2022/04/12 08:35:11;;;;;;;;;;;;;;;16.99;43.90;101018.69;5048145;28;19917;-78
2022/04/12 08:37:37;;;;;;;;;;;;;;;17.17;43.30;101014.81;5047351;28;19947;-78
2022/04/12 08:40:02;;;;;;;;;;;;;;;18.04;41.34;101012.84;5047730;28;19935;-76
2022/04/12 08:42:28;;;;;;;;;;;;;;;18.27;41.32;101018.22;5048891;28;19924;-77
2022/04/12 08:44:54;;;;;;;;;;;;;;;17.67;42.18;101015.56;5047515;28;19924;-77
2022/04/12 08:47:20;;;;;;;;;;;;;;;18.16;41.79;101015.53;5046733;28;20301;-77
2022/04/12 08:49:46;;;;;;;;;;;;;;;19.46;39.43;101011.53;5046862;28;19917;-76
2022/04/12 08:52:13;;;;;;;;;;;;;;;20.00;37.71;101014.28;5046589;28;19927;-78
2022/04/12 08:54:39;;;;;;;;;;;;;;;21.29;36.06;101008.53;5047456;28;20073;-79
2022/04/12 08:57:04;;;;;;;;;;;;;;;21.04;36.03;101000.06;5079099;28;19925;-78
2022/04/12 08:59:30;;;;;;;;;;;;;;;20.22;37.48;100989.28;5045362;28;19924;-76
2022/04/12 09:01:56;;;;;;;;;;;;;;;20.44;36.70;100983.94;5046424;28;19927;-79
2022/04/12 09:04:21;;;;;;;;;;;;;;;21.37;34.45;100989.13;5047811;28;20304;-81
2022/04/12 09:06:49;;;;;;;;;;;;;;;20.05;36.98;100987.22;5045650;28;20007;-78
2022/04/12 09:09:16;;;;;;;;;;;;;;;20.24;37.36;100982.00;5048140;28;19928;-75
2022/04/12 09:11:42;;;;;;;;;;;;;;;19.48;38.48;100984.78;5047115;28;19921;-78
2022/04/12 09:14:11;;;;;;;;;;;;;;;20.80;36.53;100976.34;5061239;28;19927;-76
2022/04/12 09:16:41;;;;;;;;;;;;;;;21.61;35.37;100970.03;5047200;28;21461;-77
2022/04/12 09:19:06;;;;;;;;;;;;;;;20.06;37.31;100976.41;5047033;28;20294;-77
2022/04/12 09:21:32;;;;;;;;;;;;;;;19.55;38.33;100967.28;5077082;28;19920;-77
2022/04/12 09:23:58;;;;;;;;;;;;;;;20.33;37.54;100972.38;5047110;28;19917;-77
2022/04/12 09:26:28;;;;;;;;;;;;;;;20.79;36.66;100969.31;5045352;28;19936;-77
2022/04/12 09:28:55;;;;;;;;;;;;;;;19.96;38.01;100974.63;5046387;28;19920;-81
2022/04/12 09:31:20;;;;;;;;;;;;;;;20.22;38.22;100973.28;5047421;28;19917;-80
2022/04/12 09:33:47;;;;;;;;;;;;;;;19.45;38.74;100979.69;5045882;28;20214;-73
2022/04/12 09:36:12;;;;;;;;;;;;;;;19.58;38.95;100959.06;5043834;28;19960;-79
2022/04/12 09:38:39;;;;;;;;;;;;;;;20.97;37.04;100961.50;5045944;28;20680;-78
2022/04/12 09:41:19;;;;;;;;;;;;;;;19.62;38.98;100964.97;5046772;28;20828;-79
2022/04/12 09:44:08;;;;;;;;;;;;;;;19.91;38.63;100972.38;5044359;28;20415;-78
2022/04/12 09:46:35;;;;;;;;;;;;;;;18.98;40.57;100986.09;5045683;28;20374;-78
2022/04/12 09:49:00;;;;;;;;;;;;;;;20.59;37.81;100974.56;5041999;28;19917;-77
2022/04/12 09:51:26;;;;;;;;;;;;;;;20.50;37.58;100972.72;5049046;28;20354;-80
2022/04/12 09:53:51;;;;;;;;;;;;;;;20.95;37.01;100972.34;5046460;28;20421;-79
2022/04/12 09:56:20;;;;;;;;;;;;;;;21.95;35.53;100972.25;5044086;28;19927;-79
2022/04/12 09:58:47;;;;;;;;;;;;;;;21.69;35.47;100972.88;5044764;28;19967;-79
2022/04/12 10:01:13;;;;;;;;;;;;;;;20.74;36.99;100966.19;5045056;28;19952;-79
2022/04/12 10:03:39;;;;;;;;;;;;;;;22.66;34.57;100960.25;5046669;28;20024;-79
2022/04/12 10:06:06;;;;;;;;;;;;;;;22.91;33.81;100962.38;5045066;28;19928;-80
2022/04/12 10:08:33;;;;;;;;;;;;;;;21.67;36.14;100964.16;5047044;28;19920;-80
2022/04/12 10:10:58;;;;;;;;;;;;;;;22.63;34.35;100955.19;5045878;28;19924;-79
2022/04/12 10:13:24;;;;;;;;;;;;;;;22.83;33.85;100950.56;5044396;28;19921;-80
2022/04/12 10:15:50;;;;;;;;;;;;;;;23.16;33.19;100944.72;5045937;28;19931;-79
2022/04/12 10:18:18;;;;;;;;;;;;;;;22.09;34.77;100938.88;5046697;28;19924;-79
2022/04/12 10:20:43;;;;;;;;;;;;;;;21.12;36.67;100943.25;5045768;28;19960;-79
2022/04/12 10:23:09;;;;;;;;;;;;;;;20.98;37.54;100934.69;5046211;28;19960;-79
2022/04/12 10:25:35;;;;;;;;;;;;;;;21.03;37.50;100922.72;5045762;28;19987;-80
2022/04/12 10:28:02;;;;;;;;;;;;;;;20.94;37.61;100919.06;5046174;28;19970;-79
2022/04/12 10:30:28;;;;;;;;;;;;;;;20.57;38.10;100911.63;5047546;28;20387;-81
2022/04/12 10:32:57;;;;;;;;;;;;;;;19.54;40.66;100914.13;5045736;28;19952;-79
2022/04/12 10:35:22;;;;;;;;;;;;;;;19.69;40.90;100922.66;5044565;28;19927;-79
2022/04/12 10:37:49;;;;;;;;;;;;;;;19.70;40.25;100913.69;5044828;28;19929;-78
2022/04/12 10:40:14;;;;;;;;;;;;;;;19.62;40.59;100911.66;5044116;28;19921;-78
2022/04/12 10:42:40;;;;;;;;;;;;;;;19.91;40.85;100909.22;5044473;28;20409;-78
2022/04/12 10:45:06;;;;;;;;;;;;;;;20.52;39.66;100906.69;5046966;28;20589;-78
2022/04/12 10:47:33;;;;;;;;;;;;;;;20.43;39.75;100903.00;5051519;28;20398;-78
2022/04/12 10:50:00;;;;;;;;;;;;;;;19.84;41.44;100905.38;5048778;28;20273;-80
2022/04/12 10:52:40;;;;;;;;;;;;;;;20.18;40.15;100902.47;5052390;28;19920;-79
2022/04/12 10:55:06;;;;;;;;;;;;;;;19.19;41.38;100908.09;5047213;28;19927;-78
2022/04/12 10:57:32;;;;;;;;;;;;;;;19.08;42.39;100908.13;5051047;28;19991;-80
2022/04/12 11:00:05;;;;;;;;;;;;;;;19.09;42.64;100907.16;5048623;28;19924;-79
2022/04/12 11:02:35;;;;;;;;;;;;;;;19.48;41.88;100910.16;5044692;28;20019;-80
2022/04/12 11:05:01;;;;;;;;;;;;;;;19.54;41.42;100906.97;5043954;28;19916;-76
2022/04/12 11:07:30;;;;;;;;;;;;;;;19.19;42.34;100916.06;5036933;28;19921;-82
2022/04/12 11:10:05;;;;;;;;;;;;;;;18.77;42.85;100918.56;5029189;28;19921;-81
2022/04/12 11:12:30;;;;;;;;;;;;;;;18.91;42.61;100915.66;5034701;28;19918;-82
2022/04/12 11:15:15;;;;;;;;;;;;;;;18.47;43.63;100912.91;5028849;28;19948;-79
2022/04/12 11:17:40;;;;;;;;;;;;;;;18.41;43.73;100900.13;5031536;28;19917;-78
2022/04/12 11:20:19;;;;;;;;;;;;;;;18.34;43.83;100897.09;5027251;28;19928;-78
2022/04/12 11:22:54;;;;;;;;;;;;;;;17.96;45.05;100906.22;5032756;28;19921;-79
2022/04/12 11:25:21;;;;;;;;;;;;;;;17.86;45.25;100900.75;5042588;28;19955;-79
2022/04/12 11:27:47;;;;;;;;;;;;;;;17.96;44.87;100906.22;5038983;28;19921;-80
2022/04/12 11:30:13;;;;;;;;;;;;;;;17.77;45.09;100912.09;5033366;28;19995;-80
2022/04/12 11:32:39;;;;;;;;;;;;;;;18.48;43.48;100921.75;5052006;28;19917;-82
2022/04/12 11:35:04;;;;;;;;;;;;;;;17.89;44.61;100905.84;5047253;28;20393;-78
2022/04/12 11:37:30;;;;;;;;;;;;;;;17.60;45.26;100892.13;5051161;28;19967;-81
2022/04/12 11:39:55;;;;;;;;;;;;;;;17.87;44.99;100893.63;5050261;28;19972;-77
2022/04/12 11:42:20;;;;;;;;;;;;;;;17.82;44.87;100895.81;5048893;28;19916;-81
2022/04/12 11:44:50;;;;;;;;;;;;;;;17.75;45.17;100901.56;5047905;28;19952;-77
2022/04/12 11:47:15;;;;;;;;;;;;;;;18.08;44.85;100891.16;5047250;28;19940;-80
2022/04/12 11:49:42;;;;;;;;;;;;;;;18.03;45.61;100880.88;5048445;28;20301;-78
2022/04/12 11:52:09;;;;;;;;;;;;;;;17.88;45.74;100871.41;5047258;28;20015;-80
2022/04/12 11:54:36;;;;;;;;;;;;;;;17.66;46.44;100865.06;5049471;28;19924;-79
2022/04/12 11:57:02;;;;;;;;;;;;;;;18.12;46.02;100878.47;5045571;28;19920;-77
2022/04/12 11:59:29;;;;;;;;;;;;;;;18.08;45.40;100876.03;5049359;28;20275;-78
2022/04/12 12:01:59;;;;;;;;;;;;;;;17.99;45.72;100879.41;5047331;28;19927;-76
2022/04/12 12:04:29;;;;;;;;;;;;;;;18.49;45.02;100892.34;5047844;28;19975;-76
2022/04/12 12:07:01;;;;;;;;;;;;;;;18.44;44.70;100886.56;5048685;28;20776;-80
2022/04/12 12:09:28;;;;;;;;;;;;;;;18.72;44.26;100872.88;5041850;28;19927;-77
2022/04/12 12:11:57;;;;;;;;;;;;;;;19.19;43.43;100877.97;5074174;28;20003;-75
2022/04/12 12:14:23;;;;;;;;;;;;;;;18.62;44.44;100881.59;5040681;28;19925;-75
2022/04/12 12:17:04;;;;;;;;;;;;;;;18.35;45.38;100882.81;5051933;28;20014;-76
2022/04/12 12:19:33;;;;;;;;;;;;;;;18.65;44.78;100891.97;5041958;28;19967;-77
2022/04/12 12:21:59;;;;;;;;;;;;;;;18.57;45.23;100893.59;5038338;28;19921;-78
2022/04/12 12:24:24;;;;;;;;;;;;;;;18.76;45.10;100883.13;5035555;28;19921;-78
2022/04/12 12:26:57;;;;;;;;;;;;;;;18.61;45.46;100869.25;5030135;28;20017;-76
2022/04/12 12:29:24;;;;;;;;;;;;;;;18.57;45.89;100867.81;5077114;28;20585;-78
2022/04/12 12:31:49;;;;;;;;;;;;;;;18.22;46.45;100876.78;5078148;28;20293;-78
2022/04/12 12:34:30;;;;;;;;;;;;;;;18.34;46.75;100867.81;5050909;28;19938;-77
2022/04/12 12:36:55;;;;;;;;;;;;;;;18.17;46.67;100858.53;5045628;28;20027;-76
2022/04/12 12:39:21;;;;;;;;;;;;;;;18.19;46.57;100869.06;5048399;28;20008;-77
2022/04/12 12:41:46;;;;;;;;;;;;;;;18.51;46.33;100857.66;5044958;28;19966;-77